createdAt,value
2024-02-08T00:00:35.914Z,94.20
2024-02-08T00:01:35.963Z,94.31
2024-02-08T00:02:36.740Z,94.41
2024-02-08T00:03:35.970Z,94.72
2024-02-08T00:04:36.834Z,95.35
2024-02-08T00:05:35.908Z,95.51
2024-02-08T00:06:35.943Z,95.51
2024-02-08T00:07:35.994Z,95.45
2024-02-08T00:08:36.280Z,95.14
2024-02-08T00:09:35.881Z,95.03
2024-02-08T00:10:35.886Z,95.03
2024-02-08T00:11:35.784Z,95.03
2024-02-08T00:12:35.778Z,95.25
2024-02-08T00:13:36.381Z,95.25
2024-02-08T00:14:36.316Z,95.25
2024-02-08T00:15:35.745Z,95.35
2024-02-08T00:16:35.782Z,95.25
2024-02-08T00:17:35.815Z,95.03
2024-02-08T00:18:35.806Z,94.82
2024-02-08T00:19:35.735Z,94.72
2024-02-08T00:20:35.699Z,94.62
2024-02-08T00:21:35.670Z,94.72
2024-02-08T00:22:35.792Z,94.82
2024-02-08T00:23:36.475Z,94.93
2024-02-08T00:24:36.380Z,95.03
2024-02-08T00:25:35.687Z,95.35
2024-02-08T00:26:35.714Z,95.45
2024-02-08T00:27:35.645Z,95.35
2024-02-08T00:28:35.659Z,95.25
2024-02-08T00:29:35.814Z,95.25
2024-02-08T00:30:35.571Z,95.35
2024-02-08T00:31:35.597Z,95.45
2024-02-08T00:32:35.619Z,95.56
2024-02-08T00:33:35.558Z,95.66
2024-02-08T00:34:35.616Z,95.66
2024-02-08T00:35:35.537Z,95.76
2024-02-08T00:36:35.573Z,95.76
2024-02-08T00:37:36.469Z,95.76
2024-02-08T00:38:35.559Z,95.76
2024-02-08T00:39:35.484Z,95.76
2024-02-08T00:40:35.525Z,95.76
2024-02-08T00:41:35.456Z,95.76
2024-02-08T00:42:35.532Z,95.87
2024-02-08T00:43:36.389Z,95.97
2024-02-08T00:44:35.451Z,95.97
2024-02-08T00:45:35.708Z,95.97
2024-02-08T00:46:35.417Z,96.08
2024-02-08T00:47:35.504Z,96.08
2024-02-08T00:48:35.436Z,96.08
2024-02-08T00:49:35.408Z,96.18
2024-02-08T00:50:35.388Z,96.18
2024-02-08T00:51:35.352Z,96.28
2024-02-08T00:52:35.403Z,96.28
2024-02-08T00:53:35.344Z,96.39
2024-02-08T00:54:35.380Z,96.39
2024-02-08T00:55:35.367Z,96.49
2024-02-08T00:56:35.292Z,96.49
2024-02-08T00:57:35.274Z,96.49
2024-02-08T00:58:35.359Z,96.59
2024-02-08T00:59:36.088Z,96.59
2024-02-08T01:00:35.298Z,96.59
2024-02-08T01:01:35.262Z,96.70
2024-02-08T01:02:35.235Z,96.70
2024-02-08T01:03:35.284Z,96.70
2024-02-08T01:04:35.270Z,96.70
2024-02-08T01:05:35.287Z,96.80
2024-02-08T01:06:35.361Z,96.80
2024-02-08T01:07:35.178Z,96.91
2024-02-08T01:08:35.184Z,97.01
2024-02-08T01:09:35.152Z,96.91
2024-02-08T01:10:35.169Z,96.91
2024-02-08T01:11:35.146Z,97.01
2024-02-08T01:12:35.945Z,97.01
2024-02-08T01:13:35.144Z,97.12
2024-02-08T01:14:35.111Z,97.22
2024-02-08T01:15:35.086Z,97.33
2024-02-08T01:16:35.096Z,97.33
2024-02-08T01:17:35.106Z,97.43
2024-02-08T01:18:35.080Z,97.33
2024-02-08T01:19:35.046Z,97.33
2024-02-08T01:20:35.059Z,97.33
2024-02-08T01:21:35.005Z,97.33
2024-02-08T01:22:35.074Z,97.33
2024-02-08T01:23:35.033Z,97.33
2024-02-08T01:24:34.977Z,97.43
2024-02-08T01:25:35.699Z,97.43
2024-02-08T01:26:35.060Z,97.43
2024-02-08T01:27:35.711Z,97.53
2024-02-08T01:28:34.983Z,97.53
2024-02-08T01:29:35.019Z,97.64
2024-02-08T01:30:34.905Z,97.64
2024-02-08T01:31:35.639Z,97.64
2024-02-08T01:32:35.852Z,97.74
2024-02-08T01:33:34.934Z,97.85
2024-02-08T01:34:35.045Z,97.85
2024-02-08T01:35:34.941Z,97.85
2024-02-08T01:36:34.846Z,97.85
2024-02-08T01:37:35.149Z,97.85
2024-02-08T01:38:34.839Z,97.85
2024-02-08T01:39:34.837Z,97.74
2024-02-08T01:40:35.281Z,97.43
2024-02-08T01:41:34.806Z,97.27
2024-02-08T01:42:34.792Z,97.06
2024-02-08T01:43:34.996Z,97.06
2024-02-08T01:44:35.623Z,97.06
2024-02-08T01:45:35.605Z,97.06
2024-02-08T01:46:35.710Z,97.16
2024-02-08T01:47:34.773Z,97.16
2024-02-08T01:48:34.815Z,97.27
2024-02-08T01:49:34.793Z,97.37
2024-02-08T01:50:34.711Z,97.47
2024-02-08T01:51:34.688Z,97.58
2024-02-08T01:52:34.756Z,97.58
2024-02-08T01:53:34.791Z,97.68
2024-02-08T01:54:34.650Z,97.78
2024-02-08T01:55:35.181Z,97.99
2024-02-08T01:56:34.636Z,98.05
2024-02-08T01:57:34.611Z,98.05
2024-02-08T01:58:34.697Z,98.16
2024-02-08T01:59:34.584Z,98.16
2024-02-08T02:00:35.499Z,98.16
2024-02-08T02:01:34.593Z,98.26
2024-02-08T02:02:35.429Z,98.26
2024-02-08T02:03:34.676Z,98.26
2024-02-08T02:04:34.555Z,98.26
2024-02-08T02:05:34.620Z,98.26
2024-02-08T02:06:34.676Z,98.26
2024-02-08T02:07:34.531Z,98.26
2024-02-08T02:08:34.878Z,98.26
2024-02-08T02:09:34.528Z,98.26
2024-02-08T02:10:34.519Z,98.36
2024-02-08T02:11:34.509Z,98.36
2024-02-08T02:12:34.453Z,98.47
2024-02-08T02:13:34.569Z,98.47
2024-02-08T02:14:34.470Z,98.47
2024-02-08T02:15:34.409Z,98.47
2024-02-08T02:16:34.440Z,98.47
2024-02-08T02:17:34.476Z,98.57
2024-02-08T02:18:34.440Z,98.57
2024-02-08T02:19:34.404Z,98.57
2024-02-08T02:20:34.362Z,98.57
2024-02-08T02:21:34.368Z,98.57
2024-02-08T02:22:34.362Z,98.57
2024-02-08T02:23:34.388Z,98.57
2024-02-08T02:24:34.368Z,98.57
2024-02-08T02:25:34.375Z,98.57
2024-02-08T02:26:35.161Z,98.57
2024-02-08T02:27:35.099Z,98.57
2024-02-08T02:28:34.315Z,98.57
2024-02-08T02:29:34.270Z,98.57
2024-02-08T02:30:34.307Z,98.57
2024-02-08T02:31:34.345Z,98.57
2024-02-08T02:32:34.264Z,98.68
2024-02-08T02:33:34.410Z,98.68
2024-02-08T02:34:34.282Z,98.68
2024-02-08T02:35:34.405Z,98.68
2024-02-08T02:36:34.255Z,98.78
2024-02-08T02:37:34.224Z,98.78
2024-02-08T02:38:34.185Z,98.88
2024-02-08T02:39:34.233Z,98.84
2024-02-08T02:40:34.194Z,98.84
2024-02-08T02:41:34.163Z,98.84
2024-02-08T02:42:34.176Z,98.84
2024-02-08T02:43:34.281Z,98.88
2024-02-08T02:44:34.120Z,98.78
2024-02-08T02:45:34.127Z,98.78
2024-02-08T02:46:34.838Z,98.78
2024-02-08T02:47:34.193Z,98.78
2024-02-08T02:48:34.159Z,98.78
2024-02-08T02:49:34.090Z,98.78
2024-02-08T02:50:34.035Z,98.78
2024-02-08T02:51:34.034Z,98.78
2024-02-08T02:52:34.078Z,98.78
2024-02-08T02:53:34.082Z,98.68
2024-02-08T02:54:34.737Z,98.68
2024-02-08T02:55:34.079Z,98.68
2024-02-08T02:56:33.999Z,98.68
2024-02-08T02:57:33.993Z,98.78
2024-02-08T02:58:34.032Z,98.78
2024-02-08T02:59:33.954Z,98.78
2024-02-08T03:00:33.940Z,98.78
2024-02-08T03:01:33.993Z,98.78
2024-02-08T03:02:33.938Z,98.88
2024-02-08T03:03:33.992Z,98.88
2024-02-08T03:04:33.916Z,98.88
2024-02-08T03:05:34.218Z,98.84
2024-02-08T03:06:33.886Z,98.84
2024-02-08T03:07:34.855Z,98.88
2024-02-08T03:08:34.892Z,98.84
2024-02-08T03:09:33.861Z,98.88
2024-02-08T03:10:33.878Z,98.88
2024-02-08T03:11:33.863Z,98.88
2024-02-08T03:12:33.801Z,98.88
2024-02-08T03:13:33.826Z,98.88
2024-02-08T03:14:33.840Z,98.88
2024-02-08T03:15:33.794Z,98.88
2024-02-08T03:16:33.770Z,98.88
2024-02-08T03:17:34.206Z,98.99
2024-02-08T03:18:33.766Z,98.99
2024-02-08T03:19:33.837Z,98.99
2024-02-08T03:20:33.770Z,98.94
2024-02-08T03:21:33.703Z,98.99
2024-02-08T03:22:33.707Z,99.05
2024-02-08T03:23:33.733Z,99.05
2024-02-08T03:24:33.677Z,99.05
2024-02-08T03:25:33.689Z,99.15
2024-02-08T03:26:33.695Z,99.15
2024-02-08T03:27:34.250Z,99.15
2024-02-08T03:28:33.884Z,99.15
2024-02-08T03:29:33.614Z,99.15
2024-02-08T03:30:33.602Z,99.15
2024-02-08T03:31:33.657Z,99.15
2024-02-08T03:32:33.591Z,99.15
2024-02-08T03:33:33.611Z,99.26
2024-02-08T03:34:33.682Z,99.26
2024-02-08T03:35:33.616Z,99.26
2024-02-08T03:36:33.545Z,99.15
2024-02-08T03:37:33.598Z,99.26
2024-02-08T03:38:33.516Z,99.26
2024-02-08T03:39:33.518Z,99.15
2024-02-08T03:40:33.687Z,99.15
2024-02-08T03:41:33.489Z,99.20
2024-02-08T03:42:33.481Z,99.26
2024-02-08T03:43:33.555Z,99.20
2024-02-08T03:44:33.456Z,99.20
2024-02-08T03:45:33.444Z,99.20
2024-02-08T03:46:33.550Z,99.20
2024-02-08T03:47:34.358Z,99.20
2024-02-08T03:48:34.422Z,99.20
2024-02-08T03:49:33.521Z,99.20
2024-02-08T03:50:33.387Z,99.20
2024-02-08T03:51:33.371Z,99.20
2024-02-08T03:52:34.196Z,99.20
2024-02-08T03:53:33.373Z,99.30
2024-02-08T03:54:33.343Z,99.30
2024-02-08T03:55:33.550Z,99.30
2024-02-08T03:56:33.355Z,99.30
2024-02-08T03:57:33.311Z,99.30
2024-02-08T03:58:33.333Z,99.41
2024-02-08T03:59:33.318Z,99.41
2024-02-08T04:00:33.283Z,99.41
2024-02-08T04:01:33.363Z,99.36
2024-02-08T04:02:33.275Z,99.41
2024-02-08T04:03:33.323Z,99.36
2024-02-08T04:04:33.265Z,99.46
2024-02-08T04:05:33.275Z,99.46
2024-02-08T04:06:33.229Z,99.46
2024-02-08T04:07:34.016Z,99.46
2024-02-08T04:08:34.106Z,99.46
2024-02-08T04:09:33.981Z,99.46
2024-02-08T04:10:33.199Z,99.36
2024-02-08T04:11:33.185Z,99.46
2024-02-08T04:12:33.138Z,99.46
2024-02-08T04:13:33.152Z,99.46
2024-02-08T04:14:34.050Z,99.46
2024-02-08T04:15:33.117Z,99.46
2024-02-08T04:16:33.128Z,99.46
2024-02-08T04:17:33.183Z,99.46
2024-02-08T04:18:33.172Z,99.46
2024-02-08T04:19:33.086Z,99.46
2024-02-08T04:20:33.069Z,99.46
2024-02-08T04:21:33.138Z,99.46
2024-02-08T04:22:33.098Z,99.46
2024-02-08T04:23:34.764Z,99.46
2024-02-08T04:24:33.040Z,99.46
2024-02-08T04:25:34.043Z,99.57
2024-02-08T04:26:33.000Z,99.57
2024-02-08T04:27:33.037Z,99.57
2024-02-08T04:28:33.057Z,99.57
2024-02-08T04:29:33.855Z,99.57
2024-02-08T04:30:33.803Z,99.67
2024-02-08T04:31:33.024Z,99.67
2024-02-08T04:32:32.986Z,99.67
2024-02-08T04:33:33.120Z,99.67
2024-02-08T04:34:32.935Z,99.67
2024-02-08T04:35:32.891Z,99.57
2024-02-08T04:36:33.234Z,99.57
2024-02-08T04:37:32.935Z,99.57
2024-02-08T04:38:32.883Z,99.57
2024-02-08T04:39:33.139Z,99.67
2024-02-08T04:40:33.763Z,99.57
2024-02-08T04:41:33.324Z,99.62
2024-02-08T04:42:33.166Z,99.62
2024-02-08T04:43:32.846Z,99.57
2024-02-08T04:44:32.802Z,99.67
2024-02-08T04:45:33.509Z,99.72
2024-02-08T04:46:32.826Z,99.67
2024-02-08T04:47:32.812Z,99.67
2024-02-08T04:48:32.857Z,99.67
2024-02-08T04:49:32.862Z,99.77
2024-02-08T04:50:33.629Z,99.77
2024-02-08T04:51:32.721Z,99.67
2024-02-08T04:52:32.772Z,99.77
2024-02-08T04:53:32.703Z,99.77
2024-02-08T04:54:32.701Z,99.67
2024-02-08T04:55:32.705Z,99.77
2024-02-08T04:56:32.676Z,99.77
2024-02-08T04:57:32.799Z,99.77
2024-02-08T04:58:56.810Z,99.77
2024-02-08T04:59:33.707Z,99.77
2024-02-08T05:00:32.624Z,99.77
2024-02-08T05:01:32.610Z,99.77
2024-02-08T05:02:32.599Z,99.77
2024-02-08T05:03:32.612Z,99.77
2024-02-08T05:04:32.690Z,99.77
2024-02-08T05:05:33.553Z,99.77
2024-02-08T05:06:32.737Z,99.77
2024-02-08T05:07:32.636Z,99.77
2024-02-08T05:08:32.558Z,99.77
2024-02-08T05:09:32.556Z,99.77
2024-02-08T05:10:33.378Z,99.77
2024-02-08T05:11:32.607Z,99.67
2024-02-08T05:12:32.504Z,99.57
2024-02-08T05:13:32.906Z,99.57
2024-02-08T05:14:32.467Z,99.57
2024-02-08T05:15:32.500Z,99.57
2024-02-08T05:16:32.594Z,99.57
2024-02-08T05:17:32.450Z,99.46
2024-02-08T05:18:32.434Z,99.46
2024-02-08T05:19:32.565Z,99.46
2024-02-08T05:20:32.435Z,99.46
2024-02-08T05:21:33.282Z,99.46
2024-02-08T05:22:32.473Z,99.46
2024-02-08T05:23:32.393Z,99.46
2024-02-08T05:24:32.836Z,99.46
2024-02-08T05:25:32.397Z,99.46
2024-02-08T05:26:32.374Z,99.46
2024-02-08T05:27:32.395Z,99.46
2024-02-08T05:28:32.319Z,99.46
2024-02-08T05:29:33.241Z,99.46
2024-02-08T05:30:32.372Z,99.46
2024-02-08T05:31:32.373Z,99.46
2024-02-08T05:32:32.401Z,99.46
2024-02-08T05:33:32.326Z,99.46
2024-02-08T05:34:32.272Z,99.46
2024-02-08T05:35:32.408Z,99.46
2024-02-08T05:36:32.235Z,99.46
2024-02-08T05:37:32.313Z,99.36
2024-02-08T05:38:32.474Z,99.36
2024-02-08T05:39:32.189Z,99.36
2024-02-08T05:40:32.588Z,99.36
2024-02-08T05:41:32.168Z,99.36
2024-02-08T05:42:32.184Z,99.36
2024-02-08T05:43:32.893Z,99.36
2024-02-08T05:44:34.072Z,99.36
2024-02-08T05:45:32.310Z,99.26
2024-02-08T05:46:32.218Z,99.26
2024-02-08T05:47:32.138Z,99.26
2024-02-08T05:48:32.131Z,99.26
2024-02-08T05:49:32.191Z,99.15
2024-02-08T05:50:33.002Z,99.15
2024-02-08T05:51:32.903Z,99.15
2024-02-08T05:52:32.228Z,99.15
2024-02-08T05:53:32.070Z,99.15
2024-02-08T05:54:33.273Z,99.15
2024-02-08T05:55:32.091Z,99.15
2024-02-08T05:56:32.284Z,99.15
2024-02-08T05:57:32.006Z,99.15
2024-02-08T05:58:32.059Z,99.15
2024-02-08T05:59:32.018Z,99.15
2024-02-08T06:00:32.137Z,99.15
2024-02-08T06:01:32.213Z,99.05
2024-02-08T06:02:31.947Z,99.05
2024-02-08T06:03:31.936Z,98.94
2024-02-08T06:04:32.032Z,98.94
2024-02-08T06:05:32.147Z,98.94
2024-02-08T06:06:31.914Z,98.94
2024-02-08T06:07:32.740Z,99.05
2024-02-08T06:08:31.978Z,99.05
2024-02-08T06:09:31.879Z,99.05
2024-02-08T06:10:31.961Z,99.05
2024-02-08T06:11:32.792Z,99.05
2024-02-08T06:12:32.086Z,99.05
2024-02-08T06:13:31.894Z,99.05
2024-02-08T06:14:31.835Z,99.05
2024-02-08T06:15:31.847Z,99.05
2024-02-08T06:16:32.594Z,99.05
2024-02-08T06:17:31.900Z,99.15
2024-02-08T06:18:32.822Z,99.15
2024-02-08T06:19:31.958Z,99.15
2024-02-08T06:20:31.757Z,99.05
2024-02-08T06:21:31.745Z,99.05
2024-02-08T06:22:31.805Z,99.05
2024-02-08T06:23:31.729Z,98.94
2024-02-08T06:24:31.726Z,99.05
2024-02-08T06:25:31.787Z,99.05
2024-02-08T06:26:31.771Z,99.05
2024-02-08T06:27:31.735Z,99.05
2024-02-08T06:28:31.706Z,99.15
2024-02-08T06:29:31.703Z,99.15
2024-02-08T06:30:31.653Z,99.15
2024-02-08T06:31:36.508Z,99.15
2024-02-08T06:32:32.703Z,99.26
2024-02-08T06:33:31.778Z,99.26
2024-02-08T06:34:31.675Z,99.26
2024-02-08T06:35:31.618Z,99.26
2024-02-08T06:36:31.623Z,99.26
2024-02-08T06:37:31.813Z,99.26
2024-02-08T06:38:31.745Z,99.26
2024-02-08T06:39:32.237Z,99.26
2024-02-08T06:40:31.732Z,99.26
2024-02-08T06:41:31.571Z,99.26
2024-02-08T06:42:31.514Z,99.26
2024-02-08T06:43:32.307Z,99.26
2024-02-08T06:44:31.737Z,99.26
2024-02-08T06:45:31.551Z,99.26
2024-02-08T06:46:31.590Z,99.21
2024-02-08T06:47:31.622Z,99.21
2024-02-08T06:48:31.578Z,99.21
2024-02-08T06:49:31.684Z,99.21
2024-02-08T06:50:31.426Z,99.21
2024-02-08T06:51:32.285Z,99.21
2024-02-08T06:52:31.496Z,99.11
2024-02-08T06:53:34.495Z,99.15
2024-02-08T06:54:31.395Z,99.05
2024-02-08T06:55:31.449Z,99.05
2024-02-08T06:56:31.368Z,99.05
2024-02-08T06:57:31.369Z,99.05
2024-02-08T06:58:31.404Z,98.94
2024-02-08T06:59:31.333Z,98.94
2024-02-08T07:00:31.537Z,98.94
2024-02-08T07:01:31.398Z,98.94
2024-02-08T07:02:31.299Z,98.94
2024-02-08T07:03:31.386Z,98.94
2024-02-08T07:04:31.392Z,99.05
2024-02-08T07:05:32.042Z,99.05
2024-02-08T07:06:31.319Z,99.05
2024-02-08T07:07:31.325Z,99.05
2024-02-08T07:08:31.251Z,99.01
2024-02-08T07:09:31.231Z,99.11
2024-02-08T07:10:31.285Z,99.11
2024-02-08T07:11:32.122Z,99.11
2024-02-08T07:12:32.030Z,99.11
2024-02-08T07:13:31.338Z,99.01
2024-02-08T07:14:31.374Z,99.11
2024-02-08T07:15:31.155Z,99.11
2024-02-08T07:16:31.262Z,99.11
2024-02-08T07:17:31.205Z,99.11
2024-02-08T07:18:31.245Z,99.11
2024-02-08T07:19:31.241Z,99.21
2024-02-08T07:20:31.333Z,99.21
2024-02-08T07:21:31.103Z,99.32
2024-02-08T07:22:31.230Z,99.32
2024-02-08T07:23:33.060Z,99.32
2024-02-08T07:24:31.075Z,99.42
2024-02-08T07:25:31.066Z,99.42
2024-02-08T07:26:31.030Z,99.42
2024-02-08T07:27:31.087Z,99.37
2024-02-08T07:28:31.110Z,99.42
2024-02-08T07:29:31.041Z,99.32
2024-02-08T07:30:31.057Z,99.27
2024-02-08T07:31:31.065Z,99.27
2024-02-08T07:32:31.017Z,99.37
2024-02-08T07:33:31.829Z,99.37
2024-02-08T07:34:31.900Z,99.37
2024-02-08T07:35:31.644Z,99.37
2024-02-08T07:36:30.969Z,99.27
2024-02-08T07:37:31.103Z,99.27
2024-02-08T07:38:31.831Z,99.16
2024-02-08T07:39:30.928Z,99.16
2024-02-08T07:40:31.409Z,99.16
2024-02-08T07:41:31.387Z,99.16
2024-02-08T07:42:31.243Z,99.16
2024-02-08T07:43:30.872Z,99.06
2024-02-08T07:44:31.631Z,98.96
2024-02-08T07:45:30.837Z,98.96
2024-02-08T07:46:31.248Z,98.85
2024-02-08T07:47:30.866Z,98.90
2024-02-08T07:48:30.850Z,98.80
2024-02-08T07:49:30.875Z,98.69
2024-02-08T07:50:30.769Z,98.69
2024-02-08T07:51:30.804Z,98.59
2024-02-08T07:52:30.835Z,98.59
2024-02-08T07:53:30.809Z,98.69
2024-02-08T07:54:30.799Z,98.69
2024-02-08T07:55:30.782Z,98.80
2024-02-08T07:56:30.918Z,98.80
2024-02-08T07:57:30.695Z,98.75
2024-02-08T07:58:30.748Z,98.75
2024-02-08T07:59:30.685Z,98.85
2024-02-08T08:00:31.167Z,98.75
2024-02-08T08:01:31.126Z,98.75
2024-02-08T08:02:31.550Z,98.75
2024-02-08T08:03:30.642Z,98.75
2024-02-08T08:04:30.666Z,98.75
2024-02-08T08:05:30.720Z,98.71
2024-02-08T08:06:30.620Z,98.81
2024-02-08T08:07:30.677Z,98.71
2024-02-08T08:08:30.587Z,98.71
2024-02-08T08:09:30.576Z,98.71
2024-02-08T08:10:30.670Z,98.71
2024-02-08T08:11:31.496Z,98.60
2024-02-08T08:12:30.560Z,98.60
2024-02-08T08:13:31.322Z,98.50
2024-02-08T08:14:31.272Z,98.50
2024-02-08T08:15:30.556Z,98.55
2024-02-08T08:16:31.098Z,98.55
2024-02-08T08:17:30.554Z,98.35
2024-02-08T08:18:30.493Z,98.35
2024-02-08T08:19:30.712Z,98.35
2024-02-08T08:20:30.475Z,98.14
2024-02-08T08:21:30.449Z,97.93
2024-02-08T08:22:30.651Z,97.93
2024-02-08T08:23:30.415Z,97.83
2024-02-08T08:24:30.403Z,97.83
2024-02-08T08:25:31.119Z,97.72
2024-02-08T08:26:30.447Z,97.72
2024-02-08T08:27:30.363Z,97.72
2024-02-08T08:28:30.446Z,97.68
2024-02-08T08:29:30.345Z,97.58
2024-02-08T08:30:32.850Z,97.58
2024-02-08T08:31:30.437Z,97.47
2024-02-08T08:32:30.373Z,97.27
2024-02-08T08:33:30.564Z,97.27
2024-02-08T08:34:30.552Z,97.16
2024-02-08T08:35:31.328Z,97.16
2024-02-08T08:36:30.410Z,97.06
2024-02-08T08:37:30.455Z,97.06
2024-02-08T08:38:30.446Z,96.75
2024-02-08T08:39:31.103Z,96.33
2024-02-08T08:40:30.341Z,96.17
2024-02-08T08:41:30.347Z,96.37
2024-02-08T08:42:30.267Z,96.48
2024-02-08T08:43:30.234Z,96.54
2024-02-08T08:44:30.499Z,96.54
2024-02-08T08:45:30.193Z,96.54
2024-02-08T08:46:30.232Z,96.64
2024-02-08T08:47:30.270Z,96.75
2024-02-08T08:48:30.222Z,96.64
2024-02-08T08:49:30.236Z,96.64
2024-02-08T08:50:30.271Z,96.60
2024-02-08T08:51:30.115Z,96.60
2024-02-08T08:52:30.167Z,96.50
2024-02-08T08:53:30.127Z,96.50
2024-02-08T08:54:31.166Z,96.50
2024-02-08T08:55:30.861Z,96.60
2024-02-08T08:56:30.134Z,96.45
2024-02-08T08:57:30.048Z,96.24
2024-02-08T08:58:30.142Z,96.03
2024-02-08T08:59:30.016Z,95.93
2024-02-08T09:00:30.033Z,95.83
2024-02-08T09:01:30.050Z,95.51
2024-02-08T09:02:29.979Z,95.00
2024-02-08T09:03:30.352Z,94.79
2024-02-08T09:04:30.040Z,94.64
2024-02-08T09:05:30.091Z,94.64
2024-02-08T09:06:30.035Z,94.54
2024-02-08T09:07:30.023Z,94.43
2024-02-08T09:08:30.085Z,94.43
2024-02-08T09:09:30.044Z,94.12
2024-02-08T09:10:29.984Z,93.81
2024-02-08T09:11:29.871Z,93.60
2024-02-08T09:12:30.275Z,93.40
2024-02-08T09:13:29.941Z,93.50
2024-02-08T09:14:29.899Z,93.60
2024-02-08T09:15:30.710Z,93.50
2024-02-08T09:16:30.125Z,93.29
2024-02-08T09:17:29.961Z,93.15
2024-02-08T09:18:29.934Z,93.15
2024-02-08T09:19:29.991Z,93.25
2024-02-08T09:20:30.431Z,93.35
2024-02-08T09:21:29.769Z,93.04
2024-02-08T09:22:30.864Z,92.22
2024-02-08T09:23:29.735Z,92.22
2024-02-08T09:24:31.254Z,92.74
2024-02-08T09:25:36.033Z,92.74
2024-02-08T09:26:30.712Z,92.84
2024-02-08T09:27:29.699Z,92.84
2024-02-08T09:28:30.124Z,92.63
2024-02-08T09:29:33.079Z,92.32
2024-02-08T09:30:29.673Z,91.80
2024-02-08T09:31:29.728Z,91.49
2024-02-08T09:32:29.654Z,91.35
2024-02-08T09:33:29.647Z,91.35
2024-02-08T09:34:29.687Z,91.45
2024-02-08T09:35:30.409Z,91.35
2024-02-08T09:36:30.492Z,91.35
2024-02-08T09:37:29.610Z,91.14
2024-02-08T09:38:29.634Z,90.99
2024-02-08T09:39:29.932Z,90.78
2024-02-08T09:40:29.749Z,90.89
2024-02-08T09:41:29.531Z,91.09
2024-02-08T09:42:30.018Z,91.09
2024-02-08T09:43:29.547Z,90.78
2024-02-08T09:44:29.559Z,90.89
2024-02-08T09:45:29.490Z,90.68
2024-02-08T09:46:29.551Z,90.58
2024-02-08T09:47:29.747Z,90.58
2024-02-08T09:48:29.531Z,90.58
2024-02-08T09:49:29.734Z,90.58
2024-02-08T09:50:30.181Z,90.78
2024-02-08T09:51:29.496Z,90.78
2024-02-08T09:52:29.613Z,90.16
2024-02-08T09:53:29.840Z,89.44
2024-02-08T09:54:29.696Z,89.44
2024-02-08T09:55:29.972Z,89.86
2024-02-08T09:56:30.453Z,90.26
2024-02-08T09:57:30.272Z,90.58
2024-02-08T09:58:30.597Z,90.78
2024-02-08T09:59:29.378Z,90.95
2024-02-08T10:00:29.340Z,90.84
2024-02-08T10:01:29.459Z,91.05
2024-02-08T10:02:29.335Z,91.57
2024-02-08T10:03:29.313Z,91.88
2024-02-08T10:04:29.370Z,92.30
2024-02-08T10:05:29.295Z,92.91
2024-02-08T10:06:29.307Z,92.81
2024-02-08T10:07:29.658Z,91.05
2024-02-08T10:08:29.231Z,90.99
2024-02-08T10:09:29.243Z,92.09
2024-02-08T10:10:29.347Z,91.09
2024-02-08T10:11:29.206Z,91.20
2024-02-08T10:12:29.185Z,91.51
2024-02-08T10:13:29.393Z,91.51
2024-02-08T10:14:29.156Z,91.24
2024-02-08T10:15:29.159Z,91.14
2024-02-08T10:16:29.215Z,91.35
2024-02-08T10:17:29.254Z,91.45
2024-02-08T10:18:29.187Z,92.07
2024-02-08T10:19:29.462Z,92.69
2024-02-08T10:20:29.090Z,92.90
2024-02-08T10:21:29.091Z,93.10
2024-02-08T10:22:29.232Z,93.31
2024-02-08T10:23:29.322Z,93.62
2024-02-08T10:24:29.055Z,93.93
2024-02-08T10:25:29.128Z,94.14
2024-02-08T10:26:29.101Z,94.14
2024-02-08T10:27:29.047Z,94.04
2024-02-08T10:28:29.139Z,93.83
2024-02-08T10:29:29.042Z,93.73
2024-02-08T10:30:28.985Z,93.73
2024-02-08T10:31:28.999Z,93.83
2024-02-08T10:32:29.376Z,93.83
2024-02-08T10:33:29.016Z,93.31
2024-02-08T10:34:29.087Z,93.35
2024-02-08T10:35:28.930Z,93.66
2024-02-08T10:36:29.207Z,94.04
2024-02-08T10:37:29.584Z,94.24
2024-02-08T10:38:28.920Z,94.24
2024-02-08T10:39:28.895Z,94.45
2024-02-08T10:40:28.977Z,94.97
2024-02-08T10:41:28.896Z,95.18
2024-02-08T10:42:28.857Z,95.07
2024-02-08T10:43:28.891Z,94.87
2024-02-08T10:44:28.880Z,94.76
2024-02-08T10:45:28.818Z,94.76
2024-02-08T10:46:28.845Z,94.76
2024-02-08T10:47:34.913Z,94.76
2024-02-08T10:48:30.482Z,94.14
2024-02-08T10:49:28.880Z,94.29
2024-02-08T10:50:29.036Z,94.60
2024-02-08T10:51:28.745Z,94.70
2024-02-08T10:52:28.878Z,95.49
2024-02-08T10:53:28.752Z,95.59
2024-02-08T10:54:28.848Z,95.70
2024-02-08T10:55:28.773Z,95.01
2024-02-08T10:56:28.727Z,95.07
2024-02-08T10:57:29.405Z,95.07
2024-02-08T10:58:29.069Z,95.18
2024-02-08T10:59:28.664Z,95.07
2024-02-08T11:00:28.700Z,95.28
2024-02-08T11:01:28.691Z,95.49
2024-02-08T11:02:29.403Z,95.90
2024-02-08T11:03:28.622Z,95.70
2024-02-08T11:04:28.752Z,95.49
2024-02-08T11:05:29.010Z,95.59
2024-02-08T11:06:30.028Z,95.59
2024-02-08T11:07:28.647Z,96.06
2024-02-08T11:08:28.568Z,95.75
2024-02-08T11:09:28.930Z,95.34
2024-02-08T11:10:28.620Z,95.24
2024-02-08T11:11:28.530Z,95.75
2024-02-08T11:12:28.548Z,96.44
2024-02-08T11:13:28.663Z,96.23
2024-02-08T11:14:28.492Z,96.02
2024-02-08T11:15:28.481Z,95.61
2024-02-08T11:16:28.607Z,94.72
2024-02-08T11:17:28.521Z,94.72
2024-02-08T11:18:29.502Z,95.44
2024-02-08T11:19:28.697Z,95.54
2024-02-08T11:20:28.763Z,95.54
2024-02-08T11:21:28.422Z,95.34
2024-02-08T11:22:28.570Z,95.14
2024-02-08T11:23:28.418Z,94.72
2024-02-08T11:24:28.407Z,94.04
2024-02-08T11:25:28.452Z,93.73
2024-02-08T11:26:28.700Z,94.18
2024-02-08T11:27:28.341Z,94.39
2024-02-08T11:28:28.395Z,95.01
2024-02-08T11:29:28.594Z,95.22
2024-02-08T11:30:28.318Z,95.53
2024-02-08T11:31:28.342Z,95.43
2024-02-08T11:32:28.388Z,95.74
2024-02-08T11:33:28.283Z,95.95
2024-02-08T11:34:28.336Z,96.36
2024-02-08T11:35:28.367Z,96.47
2024-02-08T11:36:28.267Z,96.57
2024-02-08T11:37:28.260Z,96.52
2024-02-08T11:38:29.029Z,95.64
2024-02-08T11:39:29.196Z,95.32
2024-02-08T11:40:28.249Z,95.32
2024-02-08T11:41:28.213Z,95.95
2024-02-08T11:42:28.172Z,96.36
2024-02-08T11:43:28.217Z,96.15
2024-02-08T11:44:28.179Z,95.95
2024-02-08T11:45:28.153Z,95.84
2024-02-08T11:46:28.159Z,95.12
2024-02-08T11:47:28.246Z,95.64
2024-02-08T11:48:28.300Z,95.53
2024-02-08T11:49:28.192Z,95.53
2024-02-08T11:50:28.390Z,94.74
2024-02-08T11:51:28.248Z,94.54
2024-02-08T11:52:28.251Z,94.64
2024-02-08T11:53:28.096Z,94.74
2024-02-08T11:54:28.091Z,95.57
2024-02-08T11:55:28.409Z,96.15
2024-02-08T11:56:28.056Z,96.57
2024-02-08T11:57:28.089Z,96.67
2024-02-08T11:58:28.164Z,96.78
2024-02-08T11:59:28.083Z,96.36
2024-02-08T12:00:28.164Z,95.95
2024-02-08T12:01:28.038Z,95.64
2024-02-08T12:02:28.833Z,95.53
2024-02-08T12:03:28.018Z,95.43
2024-02-08T12:04:28.063Z,95.53
2024-02-08T12:05:28.600Z,95.53
2024-02-08T12:06:28.006Z,95.74
2024-02-08T12:07:28.024Z,95.80
2024-02-08T12:08:36.878Z,95.80
2024-02-08T12:09:29.165Z,95.80
2024-02-08T12:10:27.889Z,95.90
2024-02-08T12:11:27.897Z,96.01
2024-02-08T12:12:28.609Z,96.01
2024-02-08T12:13:28.009Z,96.58
2024-02-08T12:14:28.261Z,97.00
2024-02-08T12:15:28.025Z,97.16
2024-02-08T12:16:27.854Z,97.26
2024-02-08T12:17:27.821Z,96.85
2024-02-08T12:18:29.477Z,96.23
2024-02-08T12:19:27.894Z,95.19
2024-02-08T12:20:27.829Z,94.26
2024-02-08T12:21:28.555Z,93.85
2024-02-08T12:22:27.805Z,94.78
2024-02-08T12:23:27.735Z,95.61
2024-02-08T12:24:28.248Z,95.71
2024-02-08T12:25:27.765Z,95.09
2024-02-08T12:26:27.698Z,93.85
2024-02-08T12:27:27.679Z,92.96
2024-02-08T12:28:27.710Z,93.00
2024-02-08T12:29:28.459Z,93.21
2024-02-08T12:30:28.876Z,93.62
2024-02-08T12:31:28.713Z,93.93
2024-02-08T12:32:28.922Z,94.31
2024-02-08T12:33:27.794Z,94.72
2024-02-08T12:34:27.718Z,94.72
2024-02-08T12:35:27.783Z,94.62
2024-02-08T12:36:27.753Z,94.31
2024-02-08T12:37:27.608Z,94.41
2024-02-08T12:38:27.607Z,94.62
2024-02-08T12:39:28.322Z,94.72
2024-02-08T12:40:27.590Z,94.72
2024-02-08T12:41:27.855Z,94.82
2024-02-08T12:42:27.541Z,94.93
2024-02-08T12:43:27.548Z,94.98
2024-02-08T12:44:27.515Z,94.82
2024-02-08T12:45:27.508Z,94.68
2024-02-08T12:46:28.465Z,94.47
2024-02-08T12:47:27.549Z,93.99
2024-02-08T12:48:27.503Z,94.10
2024-02-08T12:49:27.559Z,94.31
2024-02-08T12:50:29.726Z,94.41
2024-02-08T12:51:27.492Z,94.51
2024-02-08T12:52:28.379Z,94.62